Dades meteomassalio
Diari Summary for Nil La, TWC- Units:  Both    English   Metric
« Previous Day
Next Day »
Diari Semanal Mensual Anual Personalitzat
  Maxima: Minima: Mijana:
Temperatura: TemperatureC °F /  -17.8 °C 10.0 °F /  -12.2 °C 10.9 °F /  -11.7 °C
Rosada: DewpointC °F /  -17.8 °C 6.5 °F /  -14.2 °C 6.9 °F /  -13.9 °C
Humitat: Humidity % 67 % 76 %
Velocitat del vent: WindSpeedKMH mph /  0 km/h - 28.6 mph /  46 km/h
Racha vent: WindSpeedGustKMH mph /  0 km/h - -
Vent:- - NW
Pressio: PressurehPa in /  0 hPa 1016.5 in /  34418.7 hPa -
Pluja: 0.0 in /  0 mm    
Historical Graphs
 
 
Tabular Data for Nil La, TWC-
Time Temperature Dew Point Pressure Wind Wind Speed Wind Gust Humidity Rainfall Rate (Hourly) solar Conditions
TemperatureC °F /  -17.8 °C DewpointC °F /  -17.8 °C PressurehPa in /  0 hPa Calm     Humidity % HourlyPrecipMM in /  0 mm SolarRadiationWatts/m^2 W/m2 Conditions
00:00 11.1 °F /  -11.6 °C 6.8 °F /  -14 °C 1018.2 in /  34476.3 hPa NW 20.4 mph /  32.8 km/h 20.4 mph /  32.8 km/h 75 % 0.0 in /  0 mm 0.0 W/m2 CLR
00:05 11.1 °F /  -11.6 °C 6.8 °F /  -14 °C 1018.2 in /  34476.3 hPa NW 20.4 mph /  32.8 km/h 20.4 mph /  32.8 km/h 75 % 0.0 in /  0 mm 0.0 W/m2 CLR
00:06 11.1 °F /  -11.6 °C 6.8 °F /  -14 °C 1017.8 in /  34462.7 hPa NNW 19.3 mph /  31.1 km/h 19.3 mph /  31.1 km/h 75 % 0.0 in /  0 mm 0.0 W/m2 CLR
00:11 11.1 °F /  -11.6 °C 6.8 °F /  -14 °C 1017.8 in /  34462.7 hPa NNW 20.4 mph /  32.8 km/h 20.4 mph /  32.8 km/h 75 % 0.0 in /  0 mm 0.0 W/m2 CLR
00:16 11.1 °F /  -11.6 °C 6.8 °F /  -14 °C 1018.2 in /  34476.3 hPa NW 25.9 mph /  41.7 km/h 25.9 mph /  41.7 km/h 75 % 0.0 in /  0 mm 0.0 W/m2 CLR
00:21 11.1 °F /  -11.6 °C 6.8 °F /  -14 °C 1018.2 in /  34476.3 hPa NW 20.4 mph /  32.8 km/h 20.4 mph /  32.8 km/h 75 % 0.0 in /  0 mm 0.0 W/m2 CLR
00:26 11.1 °F /  -11.6 °C 6.8 °F /  -14 °C 1018.2 in /  34476.3 hPa NNW 20.4 mph /  32.8 km/h 20.4 mph /  32.8 km/h 75 % 0.0 in /  0 mm 0.0 W/m2 CLR
00:31 11.1 °F /  -11.6 °C 6.8 °F /  -14 °C 1017.8 in /  34462.7 hPa NW 24.1 mph /  38.8 km/h 24.1 mph /  38.8 km/h 75 % 0.0 in /  0 mm 0.0 W/m2 CLR
00:36 11.1 °F /  -11.6 °C 6.8 °F /  -14 °C 1017.8 in /  34462.7 hPa NW 16.7 mph /  26.9 km/h 16.7 mph /  26.9 km/h 75 % 0.0 in /  0 mm 0.0 W/m2 CLR
00:41 11.1 °F /  -11.6 °C 6.8 °F /  -14 °C 1017.5 in /  34452.6 hPa NW 22.5 mph /  36.2 km/h 22.5 mph /  36.2 km/h 75 % 0.0 in /  0 mm 0.0 W/m2 CLR
00:46 11.1 °F /  -11.6 °C 6.8 °F /  -14 °C 1017.8 in /  34462.7 hPa NW 18.5 mph /  29.8 km/h 18.5 mph /  29.8 km/h 75 % 0.0 in /  0 mm 0.0 W/m2 CLR
00:51 11.1 °F /  -11.6 °C 6.8 °F /  -14 °C 1017.8 in /  34462.7 hPa NW 18.5 mph /  29.8 km/h 18.5 mph /  29.8 km/h 75 % 0.0 in /  0 mm 0.0 W/m2 CLR
00:56 11.1 °F /  -11.6 °C 6.8 °F /  -14 °C 1017.8 in /  34462.7 hPa NW 24.1 mph /  38.8 km/h 24.1 mph /  38.8 km/h 75 % 0.0 in /  0 mm 0.0 W/m2 CLR
01:01 11.1 °F /  -11.6 °C 7.1 °F /  -13.8 °C 1017.8 in /  34462.7 hPa NW 16.7 mph /  26.9 km/h 16.7 mph /  26.9 km/h 76 % 0.0 in /  0 mm 0.0 W/m2 CLR
01:06 11.1 °F /  -11.6 °C 6.8 °F /  -14 °C 1017.5 in /  34452.6 hPa WNW 18.5 mph /  29.8 km/h 18.5 mph /  29.8 km/h 75 % 0.0 in /  0 mm 0.0 W/m2 CLR
01:11 11.1 °F /  -11.6 °C 6.8 °F /  -14 °C 1017.5 in /  34452.6 hPa NW 27.8 mph /  44.7 km/h 27.8 mph /  44.7 km/h 75 % 0.0 in /  0 mm 0.0 W/m2 CLR
01:16 11.1 °F /  -11.6 °C 7.1 °F /  -13.8 °C 1017.5 in /  34452.6 hPa NW 22.2 mph /  35.7 km/h 22.2 mph /  35.7 km/h 76 % 0.0 in /  0 mm 0.0 W/m2 CLR
01:17 11.1 °F /  -11.6 °C 7.1 °F /  -13.8 °C 1017.5 in /  34452.6 hPa NW 14.8 mph /  23.8 km/h 14.8 mph /  23.8 km/h 76 % 0.0 in /  0 mm 0.0 W/m2 CLR
01:22 11.1 °F /  -11.6 °C 7.1 °F /  -13.8 °C 1017.5 in /  34452.6 hPa NW 18.5 mph /  29.8 km/h 18.5 mph /  29.8 km/h 76 % 0.0 in /  0 mm 0.0 W/m2 CLR
01:27 11.1 °F /  -11.6 °C 6.8 °F /  -14 °C 1017.5 in /  34452.6 hPa NW 22.2 mph /  35.7 km/h 22.2 mph /  35.7 km/h 75 % 0.0 in /  0 mm 0.0 W/m2 CLR
01:32 11.1 °F /  -11.6 °C 7.1 °F /  -13.8 °C 1017.5 in /  34452.6 hPa NW 25.9 mph /  41.7 km/h 25.9 mph /  41.7 km/h 76 % 0.0 in /  0 mm 0.0 W/m2 CLR
01:37 11.1 °F /  -11.6 °C 7.1 °F /  -13.8 °C 1017.5 in /  34452.6 hPa NNW 22.5 mph /  36.2 km/h 22.5 mph /  36.2 km/h 76 % 0.0 in /  0 mm 0.0 W/m2 CLR
01:42 11.1 °F /  -11.6 °C 7.1 °F /  -13.8 °C 1017.5 in /  34452.6 hPa NW 25.9 mph /  41.7 km/h 25.9 mph /  41.7 km/h 76 % 0.0 in /  0 mm 0.0 W/m2 CLR
01:47 11.1 °F /  -11.6 °C 7.1 °F /  -13.8 °C 1017.5 in /  34452.6 hPa NNW 22.2 mph /  35.7 km/h 22.2 mph /  35.7 km/h 76 % 0.0 in /  0 mm 0.0 W/m2 CLR
01:52 11.1 °F /  -11.6 °C 7.1 °F /  -13.8 °C 1017.5 in /  34452.6 hPa NW 27.8 mph /  44.7 km/h 27.8 mph /  44.7 km/h 76 % 0.0 in /  0 mm 0.0 W/m2 CLR
01:57 10.6 °F /  -11.9 °C 6.5 °F /  -14.2 °C 1017.2 in /  34442.4 hPa NNW 25.9 mph /  41.7 km/h 25.9 mph /  41.7 km/h 76 % 0.0 in /  0 mm 0.0 W/m2 CLR
02:02 10.6 °F /  -11.9 °C 6.5 °F /  -14.2 °C 1017.2 in /  34442.4 hPa NNW 27.8 mph /  44.7 km/h 27.8 mph /  44.7 km/h 76 % 0.0 in /  0 mm 0.0 W/m2 CLR
02:07 10.6 °F /  -11.9 °C 6.5 °F /  -14.2 °C 1017.2 in /  34442.4 hPa NW 19.3 mph /  31.1 km/h 19.3 mph /  31.1 km/h 76 % 0.0 in /  0 mm 0.0 W/m2 CLR
02:12 10.6 °F /  -11.9 °C 6.5 °F /  -14.2 °C 1017.2 in /  34442.4 hPa WNW 18.5 mph /  29.8 km/h 18.5 mph /  29.8 km/h 76 % 0.0 in /  0 mm 0.0 W/m2 CLR
02:17 10.6 °F /  -11.9 °C 6.5 °F /  -14.2 °C 1017.2 in /  34442.4 hPa NNW 24.1 mph /  38.8 km/h 24.1 mph /  38.8 km/h 76 % 0.0 in /  0 mm 0.0 W/m2 CLR
02:22 11.1 °F /  -11.6 °C 7.1 °F /  -13.8 °C 1017.2 in /  34442.4 hPa NW 29.0 mph /  46.7 km/h 29.0 mph /  46.7 km/h 76 % 0.0 in /  0 mm 0.0 W/m2 CLR
02:27 10.6 °F /  -11.9 °C 6.5 °F /  -14.2 °C 1017.2 in /  34442.4 hPa NW 22.2 mph /  35.7 km/h 22.2 mph /  35.7 km/h 76 % 0.0 in /  0 mm 0.0 W/m2 CLR
02:32 10.6 °F /  -11.9 °C 6.5 °F /  -14.2 °C 1017.2 in /  34442.4 hPa NW 13.0 mph /  20.9 km/h 13.0 mph /  20.9 km/h 76 % 0.0 in /  0 mm 0.0 W/m2 CLR
02:37 11.1 °F /  -11.6 °C 7.1 °F /  -13.8 °C 1017.2 in /  34442.4 hPa NW 24.1 mph /  38.8 km/h 24.1 mph /  38.8 km/h 76 % 0.0 in /  0 mm 0.0 W/m2 CLR
02:42 11.1 °F /  -11.6 °C 7.1 °F /  -13.8 °C 1017.2 in /  34442.4 hPa NW 22.2 mph /  35.7 km/h 22.2 mph /  35.7 km/h 76 % 0.0 in /  0 mm 0.0 W/m2 CLR
02:47 11.1 °F /  -11.6 °C 7.1 °F /  -13.8 °C 1017.2 in /  34442.4 hPa NNW 24.1 mph /  38.8 km/h 24.1 mph /  38.8 km/h 76 % 0.0 in /  0 mm 0.0 W/m2 CLR
02:52 11.1 °F /  -11.6 °C 7.1 °F /  -13.8 °C 1017.2 in /  34442.4 hPa NW 22.2 mph /  35.7 km/h 22.2 mph /  35.7 km/h 76 % 0.0 in /  0 mm 0.0 W/m2 CLR
02:57 10.6 °F /  -11.9 °C 6.5 °F /  -14.2 °C 1017.2 in /  34442.4 hPa NW 16.7 mph /  26.9 km/h 16.7 mph /  26.9 km/h 76 % 0.0 in /  0 mm 0.0 W/m2 CLR
03:02 10.6 °F /  -11.9 °C 6.5 °F /  -14.2 °C 1017.2 in /  34442.4 hPa NNW 29.6 mph /  47.6 km/h 29.6 mph /  47.6 km/h 76 % 0.0 in /  0 mm 0.0 W/m2 CLR
03:07 10.6 °F /  -11.9 °C 6.5 °F /  -14.2 °C 1017.2 in /  34442.4 hPa NW 16.7 mph /  26.9 km/h 16.7 mph /  26.9 km/h 76 % 0.0 in /  0 mm 0.0 W/m2 CLR
03:12 10.6 °F /  -11.9 °C 6.5 °F /  -14.2 °C 1017.2 in /  34442.4 hPa NW 18.5 mph /  29.8 km/h 18.5 mph /  29.8 km/h 76 % 0.0 in /  0 mm 0.0 W/m2 CLR
03:17 10.6 °F /  -11.9 °C 6.5 °F /  -14.2 °C 1017.2 in /  34442.4 hPa NW 18.5 mph /  29.8 km/h 18.5 mph /  29.8 km/h 76 % 0.0 in /  0 mm 0.0 W/m2 CLR
03:22 10.6 °F /  -11.9 °C 6.5 °F /  -14.2 °C 1017.2 in /  34442.4 hPa NW 31.5 mph /  50.7 km/h 31.5 mph /  50.7 km/h 76 % 0.0 in /  0 mm 0.0 W/m2 CLR
03:27 10.6 °F /  -11.9 °C 6.7 °F /  -14.1 °C 1017.2 in /  34442.4 hPa NW 33.3 mph /  53.6 km/h 33.3 mph /  53.6 km/h 77 % 0.0 in /  0 mm 0.0 W/m2 CLR
03:32 10.6 °F /  -11.9 °C 6.7 °F /  -14.1 °C 1016.8 in /  34428.8 hPa NW 22.2 mph /  35.7 km/h 22.2 mph /  35.7 km/h 77 % 0.0 in /  0 mm 0.0 W/m2 CLR
03:37 10.6 °F /  -11.9 °C 6.7 °F /  -14.1 °C 1016.8 in /  34428.8 hPa NW 29.6 mph /  47.6 km/h 29.6 mph /  47.6 km/h 77 % 0.0 in /  0 mm 0.0 W/m2 CLR
03:42 10.6 °F /  -11.9 °C 6.7 °F /  -14.1 °C 1016.8 in /  34428.8 hPa NW 29.0 mph /  46.7 km/h 29.0 mph /  46.7 km/h 77 % 0.0 in /  0 mm 0.0 W/m2 CLR
03:47 10.6 °F /  -11.9 °C 6.7 °F /  -14.1 °C 1016.8 in /  34428.8 hPa NNW 35.2 mph /  56.6 km/h 35.2 mph /  56.6 km/h 77 % 0.0 in /  0 mm 0.0 W/m2 CLR
04:04 10.6 °F /  -11.9 °C 6.9 °F /  -13.9 °C 1016.5 in /  34418.7 hPa North 33.8 mph /  54.4 km/h 33.8 mph /  54.4 km/h 78 % 0.0 in /  0 mm 0.0 W/m2 CLR
04:09 10.6 °F /  -11.9 °C 6.9 °F /  -13.9 °C 1016.5 in /  34418.7 hPa North 42.6 mph /  68.6 km/h 42.6 mph /  68.6 km/h 78 % 0.0 in /  0 mm 0.0 W/m2 CLR
04:14 10.6 °F /  -11.9 °C 6.9 °F /  -13.9 °C 1016.5 in /  34418.7 hPa NNW 32.2 mph /  51.8 km/h 32.2 mph /  51.8 km/h 78 % 0.0 in /  0 mm 0.0 W/m2 CLR
04:19 10.6 °F /  -11.9 °C 7.1 °F /  -13.8 °C 1016.5 in /  34418.7 hPa NW 40.7 mph /  65.5 km/h 40.7 mph /  65.5 km/h 79 % 0.0 in /  0 mm 0.0 W/m2 CLR
04:24 10.6 °F /  -11.9 °C 7.1 °F /  -13.8 °C 1016.5 in /  34418.7 hPa North 35.4 mph /  57 km/h 35.4 mph /  57 km/h 79 % 0.0 in /  0 mm 0.0 W/m2 CLR
04:30 10.6 °F /  -11.9 °C 7.1 °F /  -13.8 °C 1016.5 in /  34418.7 hPa NW 31.5 mph /  50.7 km/h 31.5 mph /  50.7 km/h 79 % 0.0 in /  0 mm 0.0 W/m2 CLR
04:35 10.6 °F /  -11.9 °C 7.1 °F /  -13.8 °C 1016.5 in /  34418.7 hPa NW 29.6 mph /  47.6 km/h 29.6 mph /  47.6 km/h 79 % 0.0 in /  0 mm 0.0 W/m2 CLR
04:40 10.6 °F /  -11.9 °C 7.1 °F /  -13.8 °C 1016.8 in /  34428.8 hPa North 31.5 mph /  50.7 km/h 31.5 mph /  50.7 km/h 79 % 0.0 in /  0 mm 0.0 W/m2 CLR
04:45 10.6 °F /  -11.9 °C 7.2 °F /  -13.8 °C 1016.5 in /  34418.7 hPa NNW 29.6 mph /  47.6 km/h 29.6 mph /  47.6 km/h 80 % 0.0 in /  0 mm 0.0 W/m2 CLR
04:50 10.6 °F /  -11.9 °C 7.2 °F /  -13.8 °C 1016.5 in /  34418.7 hPa NNW 13.0 mph /  20.9 km/h 13.0 mph /  20.9 km/h 80 % 0.0 in /  0 mm 0.0 W/m2 CLR
04:55 10.6 °F /  -11.9 °C 7.2 °F /  -13.8 °C 1016.5 in /  34418.7 hPa NW 33.3 mph /  53.6 km/h 33.3 mph /  53.6 km/h 80 % 0.0 in /  0 mm 0.0 W/m2 CLR
05:00 10.6 °F /  -11.9 °C 7.2 °F /  -13.8 °C 1016.5 in /  34418.7 hPa North 25.7 mph /  41.4 km/h 25.7 mph /  41.4 km/h 80 % 0.0 in /  0 mm 0.0 W/m2 CLR
05:05 10.6 °F /  -11.9 °C 7.2 °F /  -13.8 °C 1016.5 in /  34418.7 hPa NNW 27.8 mph /  44.7 km/h 27.8 mph /  44.7 km/h 80 % 0.0 in /  0 mm 0.0 W/m2 CLR
05:10 10.6 °F /  -11.9 °C 7.2 °F /  -13.8 °C 1016.5 in /  34418.7 hPa NNW 25.9 mph /  41.7 km/h 25.9 mph /  41.7 km/h 80 % 0.0 in /  0 mm 0.0 W/m2 CLR
05:15 10.0 °F /  -12.2 °C 6.7 °F /  -14.1 °C 1016.5 in /  34418.7 hPa NW 27.8 mph /  44.7 km/h 27.8 mph /  44.7 km/h 80 % 0.0 in /  0 mm 0.0 W/m2 CLR
05:20 10.0 °F /  -12.2 °C 6.7 °F /  -14.1 °C 1016.5 in /  34418.7 hPa NNW 25.7 mph /  41.4 km/h 25.7 mph /  41.4 km/h 80 % 0.0 in /  0 mm 0.0 W/m2 CLR
05:25 10.0 °F /  -12.2 °C 6.9 °F /  -13.9 °C 1016.5 in /  34418.7 hPa NW 25.9 mph /  41.7 km/h 25.9 mph /  41.7 km/h 81 % 0.0 in /  0 mm 0.0 W/m2 CLR
05:30 10.0 °F /  -12.2 °C 6.9 °F /  -13.9 °C 1016.5 in /  34418.7 hPa NNW 27.8 mph /  44.7 km/h 27.8 mph /  44.7 km/h 81 % 0.0 in /  0 mm 0.0 W/m2 CLR
05:35 10.0 °F /  -12.2 °C 6.9 °F /  -13.9 °C 1016.5 in /  34418.7 hPa NW 29.6 mph /  47.6 km/h 29.6 mph /  47.6 km/h 81 % 0.0 in /  0 mm 0.0 W/m2 CLR
05:40 10.0 °F /  -12.2 °C 6.9 °F /  -13.9 °C 1016.5 in /  34418.7 hPa NNW 27.8 mph /  44.7 km/h 27.8 mph /  44.7 km/h 81 % 0.0 in /  0 mm 0.0 W/m2 CLR
05:45 10.0 °F /  -12.2 °C 6.9 °F /  -13.9 °C 1016.5 in /  34418.7 hPa NW 27.4 mph /  44.1 km/h 27.4 mph /  44.1 km/h 81 % 0.0 in /  0 mm 0.0 W/m2 CLR
05:50 10.0 °F /  -12.2 °C 6.7 °F /  -14.1 °C 1016.8 in /  34428.8 hPa NW 27.8 mph /  44.7 km/h 27.8 mph /  44.7 km/h 80 % 0.0 in /  0 mm 0.0 W/m2 CLR
05:55 10.0 °F /  -12.2 °C 6.7 °F /  -14.1 °C 1016.8 in /  34428.8 hPa North 25.7 mph /  41.4 km/h 25.7 mph /  41.4 km/h 80 % 0.0 in /  0 mm 0.0 W/m2 CLR
06:00 10.0 °F /  -12.2 °C 6.7 °F /  -14.1 °C 1016.5 in /  34418.7 hPa NNW 35.2 mph /  56.6 km/h 35.2 mph /  56.6 km/h 80 % 0.0 in /  0 mm 0.0 W/m2 CLR
06:05 10.6 °F /  -11.9 °C 7.2 °F /  -13.8 °C 1016.8 in /  34428.8 hPa North 31.5 mph /  50.7 km/h 31.5 mph /  50.7 km/h 80 % 0.0 in /  0 mm 0.0 W/m2 CLR
06:10 10.0 °F /  -12.2 °C 6.7 °F /  -14.1 °C 1016.5 in /  34418.7 hPa NNW 33.3 mph /  53.6 km/h 33.3 mph /  53.6 km/h 80 % 0.0 in /  0 mm 0.0 W/m2 CLR
06:15 10.0 °F /  -12.2 °C 6.7 °F /  -14.1 °C 1016.5 in /  34418.7 hPa NNW 29.6 mph /  47.6 km/h 29.6 mph /  47.6 km/h 80 % 0.0 in /  0 mm 0.0 W/m2 CLR
06:20 10.0 °F /  -12.2 °C 6.7 °F /  -14.1 °C 1016.5 in /  34418.7 hPa North 27.8 mph /  44.7 km/h 27.8 mph /  44.7 km/h 80 % 0.0 in /  0 mm 0.0 W/m2 CLR
06:25 10.0 °F /  -12.2 °C 6.9 °F /  -13.9 °C 1016.5 in /  34418.7 hPa NW 27.8 mph /  44.7 km/h 27.8 mph /  44.7 km/h 81 % 0.0 in /  0 mm 0.0 W/m2 CLR
06:30 10.0 °F /  -12.2 °C 6.9 °F /  -13.9 °C 1016.5 in /  34418.7 hPa NW 24.1 mph /  38.8 km/h 24.1 mph /  38.8 km/h 81 % 0.0 in /  0 mm 0.0 W/m2 CLR
06:35 10.0 °F /  -12.2 °C 6.9 °F /  -13.9 °C 1016.5 in /  34418.7 hPa NW 22.2 mph /  35.7 km/h 22.2 mph /  35.7 km/h 81 % 0.0 in /  0 mm 0.0 W/m2 CLR
06:40 10.0 °F /  -12.2 °C 6.9 °F /  -13.9 °C 1016.5 in /  34418.7 hPa WNW 35.2 mph /  56.6 km/h 35.2 mph /  56.6 km/h 81 % 0.0 in /  0 mm 0.0 W/m2 CLR
06:45 10.0 °F /  -12.2 °C 6.7 °F /  -14.1 °C 1016.5 in /  34418.7 hPa North 18.5 mph /  29.8 km/h 18.5 mph /  29.8 km/h 80 % 0.0 in /  0 mm 0.0 W/m2 CLR
06:50 10.0 °F /  -12.2 °C 6.9 °F /  -13.9 °C 1016.5 in /  34418.7 hPa NW 25.9 mph /  41.7 km/h 25.9 mph /  41.7 km/h 81 % 0.0 in /  0 mm 0.0 W/m2 CLR
06:55 10.0 °F /  -12.2 °C 6.9 °F /  -13.9 °C 1016.5 in /  34418.7 hPa NW 25.9 mph /  41.7 km/h 25.9 mph /  41.7 km/h 81 % 0.0 in /  0 mm 0.0 W/m2 CLR
07:00 10.0 °F /  -12.2 °C 6.9 °F /  -13.9 °C 1016.5 in /  34418.7 hPa NW 29.6 mph /  47.6 km/h 29.6 mph /  47.6 km/h 81 % 0.0 in /  0 mm 0.0 W/m2 CLR
07:05 10.0 °F /  -12.2 °C 6.9 °F /  -13.9 °C 1016.5 in /  34418.7 hPa NW 31.5 mph /  50.7 km/h 31.5 mph /  50.7 km/h 81 % 0.0 in /  0 mm 0.0 W/m2 CLR
07:10 10.0 °F /  -12.2 °C 6.9 °F /  -13.9 °C 1016.5 in /  34418.7 hPa NNW 20.4 mph /  32.8 km/h 20.4 mph /  32.8 km/h 81 % 0.0 in /  0 mm 0.0 W/m2 CLR
07:15 10.0 °F /  -12.2 °C 6.9 °F /  -13.9 °C 1016.5 in /  34418.7 hPa NW 31.5 mph /  50.7 km/h 31.5 mph /  50.7 km/h 81 % 0.0 in /  0 mm 0.0 W/m2 CLR
07:20 10.0 °F /  -12.2 °C 6.9 °F /  -13.9 °C 1016.5 in /  34418.7 hPa NW 29.6 mph /  47.6 km/h 29.6 mph /  47.6 km/h 81 % 0.0 in /  0 mm 0.0 W/m2 CLR
07:25 10.0 °F /  -12.2 °C 6.9 °F /  -13.9 °C 1016.5 in /  34418.7 hPa NNW 30.6 mph /  49.2 km/h 30.6 mph /  49.2 km/h 81 % 0.0 in /  0 mm 0.0 W/m2 CLR
07:30 10.0 °F /  -12.2 °C 6.9 °F /  -13.9 °C 1016.5 in /  34418.7 hPa NNW 29.0 mph /  46.7 km/h 29.0 mph /  46.7 km/h 81 % 0.0 in /  0 mm 0.0 W/m2 CLR
07:35 10.0 °F /  -12.2 °C 6.9 °F /  -13.9 °C 1016.5 in /  34418.7 hPa NNW 33.3 mph /  53.6 km/h 33.3 mph /  53.6 km/h 81 % 0.0 in /  0 mm 0.0 W/m2 CLR
07:40 10.0 °F /  -12.2 °C 6.9 °F /  -13.9 °C 1016.5 in /  34418.7 hPa NW 33.3 mph /  53.6 km/h 33.3 mph /  53.6 km/h 81 % 0.0 in /  0 mm 0.0 W/m2 OVC
07:45 10.0 °F /  -12.2 °C 6.9 °F /  -13.9 °C 1016.5 in /  34418.7 hPa NNW 33.3 mph /  53.6 km/h 33.3 mph /  53.6 km/h 81 % 0.0 in /  0 mm 5.0 W/m2 OVC
07:50 10.0 °F /  -12.2 °C 6.9 °F /  -13.9 °C 1016.5 in /  34418.7 hPa NW 33.3 mph /  53.6 km/h 33.3 mph /  53.6 km/h 81 % 0.0 in /  0 mm 9.0 W/m2 OVC
07:55 10.0 °F /  -12.2 °C 6.9 °F /  -13.9 °C 1016.8 in /  34428.8 hPa NW 25.9 mph /  41.7 km/h 25.9 mph /  41.7 km/h 81 % 0.0 in /  0 mm 16.0 W/m2 BKN
08:00 10.0 °F /  -12.2 °C 6.9 °F /  -13.9 °C 1016.8 in /  34428.8 hPa NNW 24.1 mph /  38.8 km/h 24.1 mph /  38.8 km/h 81 % 0.0 in /  0 mm 23.0 W/m2 BKN
08:05 10.6 °F /  -11.9 °C 7.2 °F /  -13.8 °C 1016.8 in /  34428.8 hPa NNW 25.9 mph /  41.7 km/h 25.9 mph /  41.7 km/h 80 % 0.0 in /  0 mm 28.0 W/m2 BKN
08:10 10.6 °F /  -11.9 °C 7.2 °F /  -13.8 °C 1016.8 in /  34428.8 hPa NW 29.6 mph /  47.6 km/h 29.6 mph /  47.6 km/h 80 % 0.0 in /  0 mm 33.0 W/m2 BKN
08:15 10.6 °F /  -11.9 °C 7.1 °F /  -13.8 °C 1016.8 in /  34428.8 hPa NW 25.9 mph /  41.7 km/h 25.9 mph /  41.7 km/h 79 % 0.0 in /  0 mm 37.0 W/m2 BKN
08:20 10.6 °F /  -11.9 °C 7.1 °F /  -13.8 °C 1016.8 in /  34428.8 hPa NW 27.4 mph /  44.1 km/h 27.4 mph /  44.1 km/h 79 % 0.0 in /  0 mm 37.0 W/m2 BKN
08:25 10.6 °F /  -11.9 °C 7.1 °F /  -13.8 °C 1016.8 in /  34428.8 hPa NW 31.5 mph /  50.7 km/h 31.5 mph /  50.7 km/h 79 % 0.0 in /  0 mm 35.0 W/m2 BKN
08:30 10.6 °F /  -11.9 °C 7.1 °F /  -13.8 °C 1016.8 in /  34428.8 hPa NW 33.3 mph /  53.6 km/h 33.3 mph /  53.6 km/h 79 % 0.0 in /  0 mm 44.0 W/m2 BKN
08:35 10.6 °F /  -11.9 °C 7.1 °F /  -13.8 °C 1016.8 in /  34428.8 hPa WNW 27.8 mph /  44.7 km/h 27.8 mph /  44.7 km/h 79 % 0.0 in /  0 mm 42.0 W/m2 BKN
08:40 10.6 °F /  -11.9 °C 6.9 °F /  -13.9 °C 1016.8 in /  34428.8 hPa NNW 24.1 mph /  38.8 km/h 24.1 mph /  38.8 km/h 78 % 0.0 in /  0 mm 46.0 W/m2 SCT
08:45 10.6 °F /  -11.9 °C 6.9 °F /  -13.9 °C 1016.8 in /  34428.8 hPa WNW 31.5 mph /  50.7 km/h 31.5 mph /  50.7 km/h 78 % 0.0 in /  0 mm 62.0 W/m2 SCT
08:50 10.6 °F /  -11.9 °C 6.9 °F /  -13.9 °C 1016.8 in /  34428.8 hPa NW 30.6 mph /  49.2 km/h 30.6 mph /  49.2 km/h 78 % 0.0 in /  0 mm 70.0 W/m2 SCT
08:55 10.6 °F /  -11.9 °C 6.9 °F /  -13.9 °C 1016.8 in /  34428.8 hPa NW 37.0 mph /  59.5 km/h 37.0 mph /  59.5 km/h 78 % 0.0 in /  0 mm 84.0 W/m2 FEW
09:00 11.1 °F /  -11.6 °C 7.2 °F /  -13.8 °C 1017.2 in /  34442.4 hPa NNW 27.8 mph /  44.7 km/h 27.8 mph /  44.7 km/h 77 % 0.0 in /  0 mm 109.0 W/m2 FEW
09:05 11.1 °F /  -11.6 °C 7.2 °F /  -13.8 °C 1017.2 in /  34442.4 hPa NNW 27.8 mph /  44.7 km/h 27.8 mph /  44.7 km/h 77 % 0.0 in /  0 mm 148.0 W/m2 CLR
09:10 11.1 °F /  -11.6 °C 7.2 °F /  -13.8 °C 1017.2 in /  34442.4 hPa NW 29.6 mph /  47.6 km/h 29.6 mph /  47.6 km/h 77 % 0.0 in /  0 mm 142.0 W/m2 CLR
09:15 11.1 °F /  -11.6 °C 7.1 °F /  -13.8 °C 1017.2 in /  34442.4 hPa NNW 27.8 mph /  44.7 km/h 27.8 mph /  44.7 km/h 76 % 0.0 in /  0 mm 169.0 W/m2 CLR
09:20 11.7 °F /  -11.3 °C 7.4 °F /  -13.7 °C 1017.2 in /  34442.4 hPa NW 33.8 mph /  54.4 km/h 33.8 mph /  54.4 km/h 75 % 0.0 in /  0 mm 272.0 W/m2 CLR
09:25 11.7 °F /  -11.3 °C 7.4 °F /  -13.7 °C 1017.2 in /  34442.4 hPa NW 40.7 mph /  65.5 km/h 40.7 mph /  65.5 km/h 75 % 0.0 in /  0 mm 141.0 W/m2 CLR
09:30 11.7 °F /  -11.3 °C 7.4 °F /  -13.7 °C 1017.5 in /  34452.6 hPa NNW 38.9 mph /  62.6 km/h 38.9 mph /  62.6 km/h 75 % 0.0 in /  0 mm 111.0 W/m2 CLR
09:35 11.1 °F /  -11.6 °C 6.7 °F /  -14.1 °C 1017.5 in /  34452.6 hPa NW 24.1 mph /  38.8 km/h 24.1 mph /  38.8 km/h 74 % 0.0 in /  0 mm 127.0 W/m2 CLR
09:41 11.7 °F /  -11.3 °C 7.2 °F /  -13.8 °C 1017.5 in /  34452.6 hPa NW 31.5 mph /  50.7 km/h 31.5 mph /  50.7 km/h 74 % 0.0 in /  0 mm 153.0 W/m2 CLR
09:45 11.7 °F /  -11.3 °C 7.2 °F /  -13.8 °C 1017.5 in /  34452.6 hPa WNW 24.1 mph /  38.8 km/h 24.1 mph /  38.8 km/h 74 % 0.0 in /  0 mm 158.0 W/m2 CLR
09:50 11.7 °F /  -11.3 °C 7.2 °F /  -13.8 °C 1017.5 in /  34452.6 hPa NNW 27.8 mph /  44.7 km/h 27.8 mph /  44.7 km/h 74 % 0.0 in /  0 mm 185.0 W/m2 CLR
09:56 11.7 °F /  -11.3 °C 7.0 °F /  -13.9 °C 1017.5 in /  34452.6 hPa NNW 25.9 mph /  41.7 km/h 25.9 mph /  41.7 km/h 73 % 0.0 in /  0 mm 246.0 W/m2 CLR
10:01 12.2 °F /  -11 °C 7.5 °F /  -13.6 °C 1017.5 in /  34452.6 hPa NW 24.1 mph /  38.8 km/h 24.1 mph /  38.8 km/h 73 % 0.0 in /  0 mm 209.0 W/m2 CLR
10:06 12.2 °F /  -11 °C 7.5 °F /  -13.6 °C 1017.5 in /  34452.6 hPa NW 25.9 mph /  41.7 km/h 25.9 mph /  41.7 km/h 73 % 0.0 in /  0 mm 204.0 W/m2 CLR
10:11 12.2 °F /  -11 °C 7.3 °F /  -13.7 °C 1017.5 in /  34452.6 hPa NNW 51.8 mph /  83.4 km/h 51.8 mph /  83.4 km/h 72 % 0.0 in /  0 mm 211.0 W/m2 CLR
10:16 12.2 °F /  -11 °C 7.5 °F /  -13.6 °C 1017.5 in /  34452.6 hPa NNW 32.2 mph /  51.8 km/h 32.2 mph /  51.8 km/h 73 % 0.0 in /  0 mm 346.0 W/m2 CLR
10:21 12.8 °F /  -10.7 °C 7.8 °F /  -13.4 °C 1017.5 in /  34452.6 hPa North 35.4 mph /  57 km/h 35.4 mph /  57 km/h 72 % 0.0 in /  0 mm 192.0 W/m2 CLR
10:26 12.2 °F /  -11 °C 7.3 °F /  -13.7 °C 1017.5 in /  34452.6 hPa NNW 35.2 mph /  56.6 km/h 35.2 mph /  56.6 km/h 72 % 0.0 in /  0 mm 195.0 W/m2 CLR
10:31 12.2 °F /  -11 °C 7.3 °F /  -13.7 °C 1017.5 in /  34452.6 hPa North 42.6 mph /  68.6 km/h 42.6 mph /  68.6 km/h 72 % 0.0 in /  0 mm 169.0 W/m2 CLR
10:36 12.2 °F /  -11 °C 7.3 °F /  -13.7 °C 1017.5 in /  34452.6 hPa NNW 43.4 mph /  69.8 km/h 43.4 mph /  69.8 km/h 72 % 0.0 in /  0 mm 135.0 W/m2 CLR
10:41 12.2 °F /  -11 °C 7.3 °F /  -13.7 °C 1017.5 in /  34452.6 hPa NNW 35.4 mph /  57 km/h 35.4 mph /  57 km/h 72 % 0.0 in /  0 mm 185.0 W/m2 CLR
10:46 12.2 °F /  -11 °C 7.3 °F /  -13.7 °C 1017.5 in /  34452.6 hPa North 37.0 mph /  59.5 km/h 37.0 mph /  59.5 km/h 72 % 0.0 in /  0 mm 172.0 W/m2 CLR
10:51 12.2 °F /  -11 °C 7.1 °F /  -13.8 °C 1017.5 in /  34452.6 hPa NNW 42.6 mph /  68.6 km/h 42.6 mph /  68.6 km/h 71 % 0.0 in /  0 mm 221.0 W/m2 CLR
10:56 12.2 °F /  -11 °C 7.1 °F /  -13.8 °C 1017.5 in /  34452.6 hPa NW 31.5 mph /  50.7 km/h 31.5 mph /  50.7 km/h 71 % 0.0 in /  0 mm 179.0 W/m2 CLR
11:01 12.8 °F /  -10.7 °C 7.4 °F /  -13.7 °C 1017.5 in /  34452.6 hPa NNW 24.1 mph /  38.8 km/h 24.1 mph /  38.8 km/h 70 % 0.0 in /  0 mm 190.0 W/m2 CLR
11:06 12.8 °F /  -10.7 °C 7.4 °F /  -13.7 °C 1017.5 in /  34452.6 hPa NNW 27.8 mph /  44.7 km/h 27.8 mph /  44.7 km/h 70 % 0.0 in /  0 mm 190.0 W/m2 CLR
11:11 12.8 °F /  -10.7 °C 7.2 °F /  -13.8 °C 1017.8 in /  34462.7 hPa North 48.1 mph /  77.4 km/h 48.1 mph /  77.4 km/h 69 % 0.0 in /  0 mm 206.0 W/m2 CLR
11:16 12.8 °F /  -10.7 °C 7.4 °F /  -13.7 °C 1017.8 in /  34462.7 hPa NNE 42.6 mph /  68.6 km/h 42.6 mph /  68.6 km/h 70 % 0.0 in /  0 mm 178.0 W/m2 CLR
11:21 12.8 °F /  -10.7 °C 7.2 °F /  -13.8 °C 1017.5 in /  34452.6 hPa North 42.6 mph /  68.6 km/h 42.6 mph /  68.6 km/h 69 % 0.0 in /  0 mm 255.0 W/m2 CLR
11:26 12.8 °F /  -10.7 °C 7.2 °F /  -13.8 °C 1017.5 in /  34452.6 hPa NNW 42.6 mph /  68.6 km/h 42.6 mph /  68.6 km/h 69 % 0.0 in /  0 mm 211.0 W/m2 CLR
11:31 12.8 °F /  -10.7 °C 7.0 °F /  -13.9 °C 1017.8 in /  34462.7 hPa North 40.7 mph /  65.5 km/h 40.7 mph /  65.5 km/h 68 % 0.0 in /  0 mm 272.0 W/m2 CLR
11:36 12.8 °F /  -10.7 °C 7.0 °F /  -13.9 °C 1017.5 in /  34452.6 hPa NNW 42.6 mph /  68.6 km/h 42.6 mph /  68.6 km/h 68 % 0.0 in /  0 mm 241.0 W/m2 CLR
11:41 12.8 °F /  -10.7 °C 7.0 °F /  -13.9 °C 1017.5 in /  34452.6 hPa NNW 48.1 mph /  77.4 km/h 48.1 mph /  77.4 km/h 68 % 0.0 in /  0 mm 227.0 W/m2 CLR
11:46 12.8 °F /  -10.7 °C 7.0 °F /  -13.9 °C 1017.5 in /  34452.6 hPa North 46.3 mph /  74.5 km/h 46.3 mph /  74.5 km/h 68 % 0.0 in /  0 mm 264.0 W/m2 CLR
11:51 12.8 °F /  -10.7 °C 7.0 °F /  -13.9 °C 1017.5 in /  34452.6 hPa NNW 25.9 mph /  41.7 km/h 25.9 mph /  41.7 km/h 68 % 0.0 in /  0 mm 272.0 W/m2 CLR
11:56 12.8 °F /  -10.7 °C 6.8 °F /  -14 °C 1017.5 in /  34452.6 hPa NNW 42.6 mph /  68.6 km/h 42.6 mph /  68.6 km/h 67 % 0.0 in /  0 mm 243.0 W/m2 CLR
12:01 12.8 °F /  -10.7 °C 6.8 °F /  -14 °C 1017.2 in /  34442.4 hPa North 40.7 mph /  65.5 km/h 40.7 mph /  65.5 km/h 67 % 0.0 in /  0 mm 258.0 W/m2 CLR
12:06 12.8 °F /  -10.7 °C 6.8 °F /  -14 °C 1017.2 in /  34442.4 hPa NNW 53.7 mph /  86.4 km/h 53.7 mph /  86.4 km/h 67 % 0.0 in /  0 mm 229.0 W/m2 CLR
12:11 12.8 °F /  -10.7 °C 7.0 °F /  -13.9 °C 1017.2 in /  34442.4 hPa North 24.1 mph /  38.8 km/h 24.1 mph /  38.8 km/h 68 % 0.0 in /  0 mm 253.0 W/m2 CLR
12:16 12.8 °F /  -10.7 °C 7.0 °F /  -13.9 °C 1017.5 in /  34452.6 hPa NNW 31.5 mph /  50.7 km/h 31.5 mph /  50.7 km/h 68 % 0.0 in /  0 mm 308.0 W/m2 CLR
Lo Temps de Massalio
Compliments of Weather Underground - 768 kb